sensor_id;sensor_type;location;lat;lon;timestamp;P1;durP1;ratioP1;P2;durP2;ratioP2
7440;SDS011;29616;51.950;8.572;2023-02-15T00:01:32;590.25;;;309.50;;
7440;SDS011;29616;51.950;8.572;2023-02-15T00:04:01;450.10;;;91.03;;
7440;SDS011;29616;51.950;8.572;2023-02-15T00:06:32;457.77;;;90.25;;
7440;SDS011;29616;51.950;8.572;2023-02-15T00:09:00;442.35;;;92.30;;
7440;SDS011;29616;51.950;8.572;2023-02-15T00:11:31;499.27;;;85.13;;
7440;SDS011;29616;51.950;8.572;2023-02-15T00:14:09;453.20;;;78.60;;
7440;SDS011;29616;51.950;8.572;2023-02-15T00:16:40;445.85;;;83.25;;
7440;SDS011;29616;51.950;8.572;2023-02-15T00:19:11;455.95;;;85.88;;
7440;SDS011;29616;51.950;8.572;2023-02-15T00:21:42;459.50;;;77.57;;
7440;SDS011;29616;51.950;8.572;2023-02-15T00:24:14;551.75;;;88.20;;
7440;SDS011;29616;51.950;8.572;2023-02-15T00:26:46;410.90;;;97.75;;
7440;SDS011;29616;51.950;8.572;2023-02-15T00:29:16;437.90;;;93.10;;
7440;SDS011;29616;51.950;8.572;2023-02-15T00:31:46;442.52;;;91.80;;
7440;SDS011;29616;51.950;8.572;2023-02-15T00:34:16;463.10;;;89.22;;
7440;SDS011;29616;51.950;8.572;2023-02-15T00:36:48;479.58;;;88.35;;
7440;SDS011;29616;51.950;8.572;2023-02-15T00:39:19;465.67;;;87.22;;
7440;SDS011;29616;51.950;8.572;2023-02-15T00:41:47;467.38;;;89.05;;
7440;SDS011;29616;51.950;8.572;2023-02-15T00:44:16;460.83;;;87.55;;
7440;SDS011;29616;51.950;8.572;2023-02-15T00:46:46;468.88;;;89.93;;
7440;SDS011;29616;51.950;8.572;2023-02-15T00:49:17;455.25;;;89.00;;
7440;SDS011;29616;51.950;8.572;2023-02-15T00:51:45;437.63;;;91.97;;
7440;SDS011;29616;51.950;8.572;2023-02-15T00:54:17;453.42;;;88.90;;
7440;SDS011;29616;51.950;8.572;2023-02-15T00:56:45;459.38;;;91.38;;
7440;SDS011;29616;51.950;8.572;2023-02-15T00:59:14;448.63;;;88.75;;
7440;SDS011;29616;51.950;8.572;2023-02-15T01:01:45;452.55;;;88.80;;
7440;SDS011;29616;51.950;8.572;2023-02-15T01:04:13;458.35;;;86.22;;
7440;SDS011;29616;51.950;8.572;2023-02-15T01:06:42;453.05;;;87.50;;
7440;SDS011;29616;51.950;8.572;2023-02-15T01:09:12;455.48;;;90.20;;
7440;SDS011;29616;51.950;8.572;2023-02-15T01:11:42;464.00;;;88.03;;
7440;SDS011;29616;51.950;8.572;2023-02-15T01:14:10;464.35;;;88.50;;
7440;SDS011;29616;51.950;8.572;2023-02-15T01:16:40;456.63;;;88.82;;
7440;SDS011;29616;51.950;8.572;2023-02-15T01:19:08;472.85;;;87.85;;
7440;SDS011;29616;51.950;8.572;2023-02-15T01:21:37;483.63;;;87.32;;
7440;SDS011;29616;51.950;8.572;2023-02-15T01:24:10;479.08;;;87.13;;
7440;SDS011;29616;51.950;8.572;2023-02-15T01:26:40;471.30;;;87.25;;
7440;SDS011;29616;51.950;8.572;2023-02-15T01:29:11;459.73;;;86.72;;
7440;SDS011;29616;51.950;8.572;2023-02-15T01:31:40;466.75;;;95.75;;
7440;SDS011;29616;51.950;8.572;2023-02-15T01:34:12;459.80;;;88.45;;
7440;SDS011;29616;51.950;8.572;2023-02-15T01:36:41;462.25;;;90.53;;
7440;SDS011;29616;51.950;8.572;2023-02-15T01:39:13;463.25;;;88.65;;
7440;SDS011;29616;51.950;8.572;2023-02-15T01:41:44;463.17;;;88.07;;
7440;SDS011;29616;51.950;8.572;2023-02-15T01:47:17;460.58;;;90.40;;
7440;SDS011;29616;51.950;8.572;2023-02-15T01:49:52;455.88;;;92.53;;
7440;SDS011;29616;51.950;8.572;2023-02-15T01:52:31;460.80;;;89.75;;
7440;SDS011;29616;51.950;8.572;2023-02-15T01:55:03;466.10;;;88.83;;
7440;SDS011;29616;51.950;8.572;2023-02-15T01:57:34;469.92;;;91.30;;
7440;SDS011;29616;51.950;8.572;2023-02-15T02:00:04;481.02;;;87.53;;
7440;SDS011;29616;51.950;8.572;2023-02-15T02:02:38;472.13;;;88.30;;
7440;SDS011;29616;51.950;8.572;2023-02-15T02:05:10;465.23;;;89.75;;
7440;SDS011;29616;51.950;8.572;2023-02-15T02:07:39;467.58;;;89.35;;
7440;SDS011;29616;51.950;8.572;2023-02-15T02:10:13;473.52;;;87.75;;
7440;SDS011;29616;51.950;8.572;2023-02-15T02:12:46;477.55;;;87.85;;
7440;SDS011;29616;51.950;8.572;2023-02-15T02:15:23;475.77;;;86.90;;
7440;SDS011;29616;51.950;8.572;2023-02-15T02:18:02;469.13;;;88.68;;
7440;SDS011;29616;51.950;8.572;2023-02-15T02:20:51;484.15;;;84.88;;
7440;SDS011;29616;51.950;8.572;2023-02-15T02:23:58;486.10;;;85.15;;
7440;SDS011;29616;51.950;8.572;2023-02-15T02:26:58;478.00;;;82.97;;
7440;SDS011;29616;51.950;8.572;2023-02-15T02:33:29;482.17;;;83.47;;
7440;SDS011;29616;51.950;8.572;2023-02-15T02:36:14;482.15;;;85.95;;
7440;SDS011;29616;51.950;8.572;2023-02-15T02:38:55;479.10;;;85.57;;
7440;SDS011;29616;51.950;8.572;2023-02-15T02:41:36;453.45;;;87.95;;
7440;SDS011;29616;51.950;8.572;2023-02-15T02:44:16;446.65;;;88.65;;
7440;SDS011;29616;51.950;8.572;2023-02-15T02:46:50;516.78;;;220.23;;
7440;SDS011;29616;51.950;8.572;2023-02-15T02:49:33;412.98;;;92.30;;
7440;SDS011;29616;51.950;8.572;2023-02-15T02:52:05;411.48;;;85.22;;
7440;SDS011;29616;51.950;8.572;2023-02-15T02:55:16;435.90;;;82.95;;
7440;SDS011;29616;51.950;8.572;2023-02-15T02:57:52;461.13;;;79.25;;
7440;SDS011;29616;51.950;8.572;2023-02-15T03:00:25;466.40;;;77.28;;
7440;SDS011;29616;51.950;8.572;2023-02-15T03:02:59;488.30;;;80.88;;
7440;SDS011;29616;51.950;8.572;2023-02-15T03:05:33;451.92;;;79.10;;
7440;SDS011;29616;51.950;8.572;2023-02-15T03:08:06;439.95;;;81.22;;
7440;SDS011;29616;51.950;8.572;2023-02-15T03:10:39;442.25;;;80.60;;
7440;SDS011;29616;51.950;8.572;2023-02-15T03:13:09;429.25;;;82.88;;
7440;SDS011;29616;51.950;8.572;2023-02-15T03:15:38;436.48;;;81.22;;
7440;SDS011;29616;51.950;8.572;2023-02-15T03:21:03;460.05;;;76.88;;
7440;SDS011;29616;51.950;8.572;2023-02-15T03:23:35;465.55;;;81.07;;
7440;SDS011;29616;51.950;8.572;2023-02-15T03:26:05;445.40;;;81.60;;
7440;SDS011;29616;51.950;8.572;2023-02-15T03:28:39;450.88;;;84.30;;
7440;SDS011;29616;51.950;8.572;2023-02-15T03:31:14;429.45;;;82.38;;
7440;SDS011;29616;51.950;8.572;2023-02-15T03:33:47;469.40;;;91.97;;
7440;SDS011;29616;51.950;8.572;2023-02-15T03:36:24;478.52;;;85.78;;
7440;SDS011;29616;51.950;8.572;2023-02-15T03:39:05;476.88;;;85.35;;
7440;SDS011;29616;51.950;8.572;2023-02-15T03:41:42;429.90;;;82.80;;
7440;SDS011;29616;51.950;8.572;2023-02-15T03:44:23;445.45;;;79.70;;
7440;SDS011;29616;51.950;8.572;2023-02-15T03:46:59;520.67;;;89.00;;
7440;SDS011;29616;51.950;8.572;2023-02-15T03:49:37;428.83;;;82.78;;
7440;SDS011;29616;51.950;8.572;2023-02-15T03:52:13;423.88;;;81.35;;
7440;SDS011;29616;51.950;8.572;2023-02-15T03:54:43;427.73;;;81.22;;
7440;SDS011;29616;51.950;8.572;2023-02-15T03:57:15;432.23;;;78.32;;
7440;SDS011;29616;51.950;8.572;2023-02-15T04:00:05;461.00;;;79.07;;
7440;SDS011;29616;51.950;8.572;2023-02-15T04:03:05;487.35;;;85.28;;
7440;SDS011;29616;51.950;8.572;2023-02-15T04:05:54;476.08;;;85.88;;
7440;SDS011;29616;51.950;8.572;2023-02-15T04:08:25;469.58;;;85.43;;
7440;SDS011;29616;51.950;8.572;2023-02-15T04:11:15;475.25;;;82.68;;
7440;SDS011;29616;51.950;8.572;2023-02-15T04:13:43;473.27;;;86.28;;
7440;SDS011;29616;51.950;8.572;2023-02-15T04:16:13;470.10;;;85.65;;
7440;SDS011;29616;51.950;8.572;2023-02-15T04:18:41;493.50;;;86.70;;
7440;SDS011;29616;51.950;8.572;2023-02-15T04:21:28;481.02;;;83.80;;
7440;SDS011;29616;51.950;8.572;2023-02-15T04:24:18;473.83;;;85.97;;
7440;SDS011;29616;51.950;8.572;2023-02-15T04:27:05;455.73;;;86.68;;
7440;SDS011;29616;51.950;8.572;2023-02-15T04:29:36;452.15;;;94.80;;
7440;SDS011;29616;51.950;8.572;2023-02-15T04:32:05;455.33;;;86.65;;
7440;SDS011;29616;51.950;8.572;2023-02-15T04:34:35;454.13;;;88.07;;
7440;SDS011;29616;51.950;8.572;2023-02-15T04:37:04;464.30;;;87.55;;
7440;SDS011;29616;51.950;8.572;2023-02-15T04:39:34;459.48;;;89.00;;
7440;SDS011;29616;51.950;8.572;2023-02-15T04:42:03;465.52;;;87.93;;
7440;SDS011;29616;51.950;8.572;2023-02-15T04:44:33;458.60;;;87.40;;
7440;SDS011;29616;51.950;8.572;2023-02-15T04:47:01;443.58;;;89.25;;
7440;SDS011;29616;51.950;8.572;2023-02-15T04:49:31;441.92;;;89.72;;
7440;SDS011;29616;51.950;8.572;2023-02-15T04:51:59;464.40;;;96.03;;
7440;SDS011;29616;51.950;8.572;2023-02-15T04:54:30;460.27;;;87.03;;
7440;SDS011;29616;51.950;8.572;2023-02-15T04:57:00;458.77;;;87.72;;
7440;SDS011;29616;51.950;8.572;2023-02-15T04:59:30;453.77;;;86.50;;
7440;SDS011;29616;51.950;8.572;2023-02-15T05:01:59;441.35;;;90.53;;
7440;SDS011;29616;51.950;8.572;2023-02-15T05:04:28;447.77;;;89.53;;
7440;SDS011;29616;51.950;8.572;2023-02-15T05:06:58;440.00;;;93.35;;
7440;SDS011;29616;51.950;8.572;2023-02-15T05:09:28;451.15;;;90.43;;
7440;SDS011;29616;51.950;8.572;2023-02-15T05:11:57;433.33;;;94.35;;
7440;SDS011;29616;51.950;8.572;2023-02-15T05:14:28;417.08;;;95.75;;
7440;SDS011;29616;51.950;8.572;2023-02-15T05:16:57;424.67;;;94.78;;
7440;SDS011;29616;51.950;8.572;2023-02-15T05:19:28;425.53;;;92.07;;
7440;SDS011;29616;51.950;8.572;2023-02-15T05:21:58;411.10;;;93.55;;
7440;SDS011;29616;51.950;8.572;2023-02-15T05:24:28;422.33;;;91.90;;
7440;SDS011;29616;51.950;8.572;2023-02-15T05:27:15;421.63;;;90.97;;
7440;SDS011;29616;51.950;8.572;2023-02-15T05:30:03;431.90;;;90.05;;
7440;SDS011;29616;51.950;8.572;2023-02-15T05:32:37;419.25;;;91.30;;
7440;SDS011;29616;51.950;8.572;2023-02-15T05:35:11;422.42;;;92.07;;
7440;SDS011;29616;51.950;8.572;2023-02-15T05:37:42;434.50;;;88.10;;
7440;SDS011;29616;51.950;8.572;2023-02-15T05:40:11;455.10;;;90.32;;
7440;SDS011;29616;51.950;8.572;2023-02-15T05:42:41;436.80;;;90.13;;
7440;SDS011;29616;51.950;8.572;2023-02-15T05:45:10;426.08;;;92.20;;
7440;SDS011;29616;51.950;8.572;2023-02-15T05:47:38;419.98;;;97.95;;
7440;SDS011;29616;51.950;8.572;2023-02-15T05:50:08;423.58;;;90.53;;
7440;SDS011;29616;51.950;8.572;2023-02-15T05:52:38;448.48;;;87.43;;
7440;SDS011;29616;51.950;8.572;2023-02-15T05:55:07;449.33;;;89.50;;
7440;SDS011;29616;51.950;8.572;2023-02-15T05:57:35;454.08;;;87.63;;
7440;SDS011;29616;51.950;8.572;2023-02-15T06:00:06;433.23;;;90.15;;
7440;SDS011;29616;51.950;8.572;2023-02-15T06:02:40;435.42;;;89.78;;
7440;SDS011;29616;51.950;8.572;2023-02-15T06:05:11;424.70;;;92.03;;
7440;SDS011;29616;51.950;8.572;2023-02-15T06:07:42;423.30;;;91.45;;
7440;SDS011;29616;51.950;8.572;2023-02-15T06:10:11;437.52;;;91.78;;
7440;SDS011;29616;51.950;8.572;2023-02-15T06:12:39;443.95;;;88.20;;
7440;SDS011;29616;51.950;8.572;2023-02-15T06:15:09;439.00;;;89.53;;
7440;SDS011;29616;51.950;8.572;2023-02-15T06:17:37;432.33;;;90.05;;
7440;SDS011;29616;51.950;8.572;2023-02-15T06:20:08;433.40;;;89.43;;
7440;SDS011;29616;51.950;8.572;2023-02-15T06:22:36;452.52;;;96.18;;
7440;SDS011;29616;51.950;8.572;2023-02-15T06:25:05;454.48;;;88.18;;
7440;SDS011;29616;51.950;8.572;2023-02-15T06:27:37;439.90;;;91.18;;
7440;SDS011;29616;51.950;8.572;2023-02-15T06:30:09;442.17;;;90.60;;
7440;SDS011;29616;51.950;8.572;2023-02-15T06:32:39;430.20;;;89.60;;
7440;SDS011;29616;51.950;8.572;2023-02-15T06:35:10;415.48;;;90.60;;
7440;SDS011;29616;51.950;8.572;2023-02-15T06:37:38;434.70;;;91.15;;
7440;SDS011;29616;51.950;8.572;2023-02-15T06:40:09;439.15;;;88.78;;
7440;SDS011;29616;51.950;8.572;2023-02-15T06:42:38;438.65;;;89.65;;
7440;SDS011;29616;51.950;8.572;2023-02-15T06:45:10;438.08;;;89.45;;
7440;SDS011;29616;51.950;8.572;2023-02-15T06:47:40;451.20;;;90.57;;
7440;SDS011;29616;51.950;8.572;2023-02-15T06:50:11;438.17;;;88.97;;
7440;SDS011;29616;51.950;8.572;2023-02-15T06:52:41;429.08;;;90.05;;
7440;SDS011;29616;51.950;8.572;2023-02-15T06:55:10;430.95;;;91.05;;
7440;SDS011;29616;51.950;8.572;2023-02-15T06:57:38;429.40;;;93.10;;
7440;SDS011;29616;51.950;8.572;2023-02-15T07:00:09;426.65;;;97.65;;
7440;SDS011;29616;51.950;8.572;2023-02-15T07:02:40;417.90;;;92.27;;
7440;SDS011;29616;51.950;8.572;2023-02-15T07:05:08;420.63;;;92.38;;
7440;SDS011;29616;51.950;8.572;2023-02-15T07:07:38;433.77;;;90.03;;
7440;SDS011;29616;51.950;8.572;2023-02-15T07:10:08;411.35;;;93.18;;
7440;SDS011;29616;51.950;8.572;2023-02-15T07:12:37;418.38;;;91.40;;
7440;SDS011;29616;51.950;8.572;2023-02-15T07:15:09;432.38;;;91.88;;
7440;SDS011;29616;51.950;8.572;2023-02-15T07:17:38;433.55;;;90.85;;
7440;SDS011;29616;51.950;8.572;2023-02-15T07:20:09;434.83;;;95.57;;
7440;SDS011;29616;51.950;8.572;2023-02-15T07:22:41;421.88;;;89.25;;
7440;SDS011;29616;51.950;8.572;2023-02-15T07:25:11;436.15;;;89.40;;
7440;SDS011;29616;51.950;8.572;2023-02-15T07:27:41;447.10;;;95.30;;
7440;SDS011;29616;51.950;8.572;2023-02-15T07:30:12;443.40;;;89.22;;
7440;SDS011;29616;51.950;8.572;2023-02-15T07:32:43;434.70;;;89.78;;
7440;SDS011;29616;51.950;8.572;2023-02-15T07:35:31;444.88;;;91.97;;
7440;SDS011;29616;51.950;8.572;2023-02-15T07:38:02;454.05;;;93.47;;
7440;SDS011;29616;51.950;8.572;2023-02-15T07:40:32;440.00;;;92.43;;
7440;SDS011;29616;51.950;8.572;2023-02-15T07:43:00;442.42;;;91.55;;
7440;SDS011;29616;51.950;8.572;2023-02-15T07:45:29;440.50;;;93.05;;
7440;SDS011;29616;51.950;8.572;2023-02-15T07:47:59;447.25;;;93.25;;
7440;SDS011;29616;51.950;8.572;2023-02-15T07:50:29;459.42;;;88.68;;
7440;SDS011;29616;51.950;8.572;2023-02-15T07:52:58;464.90;;;89.53;;
7440;SDS011;29616;51.950;8.572;2023-02-15T07:55:30;465.05;;;89.20;;
7440;SDS011;29616;51.950;8.572;2023-02-15T07:58:00;467.77;;;91.00;;
7440;SDS011;29616;51.950;8.572;2023-02-15T08:00:31;471.30;;;97.93;;
7440;SDS011;29616;51.950;8.572;2023-02-15T08:03:22;447.30;;;95.45;;
7440;SDS011;29616;51.950;8.572;2023-02-15T08:05:55;458.20;;;96.13;;
7440;SDS011;29616;51.950;8.572;2023-02-15T08:08:27;485.38;;;94.75;;
7440;SDS011;29616;51.950;8.572;2023-02-15T08:11:02;473.17;;;97.20;;
7440;SDS011;29616;51.950;8.572;2023-02-15T08:13:52;475.00;;;96.50;;
7440;SDS011;29616;51.950;8.572;2023-02-15T08:16:22;484.05;;;91.88;;
7440;SDS011;29616;51.950;8.572;2023-02-15T08:18:53;487.40;;;91.47;;
7440;SDS011;29616;51.950;8.572;2023-02-15T08:21:22;495.30;;;91.07;;
7440;SDS011;29616;51.950;8.572;2023-02-15T08:23:54;476.27;;;91.23;;
7440;SDS011;29616;51.950;8.572;2023-02-15T08:26:25;471.25;;;91.40;;
7440;SDS011;29616;51.950;8.572;2023-02-15T08:28:56;482.75;;;95.32;;
7440;SDS011;29616;51.950;8.572;2023-02-15T08:31:27;545.97;;;101.70;;
7440;SDS011;29616;51.950;8.572;2023-02-15T08:33:58;412.48;;;94.80;;
7440;SDS011;29616;51.950;8.572;2023-02-15T08:36:28;430.02;;;92.28;;
7440;SDS011;29616;51.950;8.572;2023-02-15T08:38:59;424.50;;;102.20;;
7440;SDS011;29616;51.950;8.572;2023-02-15T08:41:34;474.33;;;96.90;;
7440;SDS011;29616;51.950;8.572;2023-02-15T08:44:06;456.85;;;101.03;;
7440;SDS011;29616;51.950;8.572;2023-02-15T08:46:37;462.45;;;98.80;;
7440;SDS011;29616;51.950;8.572;2023-02-15T08:49:07;475.42;;;97.20;;
7440;SDS011;29616;51.950;8.572;2023-02-15T08:51:37;478.25;;;98.63;;
7440;SDS011;29616;51.950;8.572;2023-02-15T08:54:07;467.10;;;98.50;;
7440;SDS011;29616;51.950;8.572;2023-02-15T08:56:39;473.05;;;97.30;;
7440;SDS011;29616;51.950;8.572;2023-02-15T08:59:11;462.23;;;99.88;;
7440;SDS011;29616;51.950;8.572;2023-02-15T09:01:43;463.23;;;101.57;;
7440;SDS011;29616;51.950;8.572;2023-02-15T09:04:13;466.50;;;99.30;;
7440;SDS011;29616;51.950;8.572;2023-02-15T09:06:46;472.55;;;98.70;;
7440;SDS011;29616;51.950;8.572;2023-02-15T09:09:16;458.33;;;103.75;;
7440;SDS011;29616;51.950;8.572;2023-02-15T09:11:50;428.83;;;113.43;;
7440;SDS011;29616;51.950;8.572;2023-02-15T09:14:26;453.77;;;106.97;;
7440;SDS011;29616;51.950;8.572;2023-02-15T09:16:57;449.52;;;110.00;;
7440;SDS011;29616;51.950;8.572;2023-02-15T09:19:25;414.88;;;107.95;;
7440;SDS011;29616;51.950;8.572;2023-02-15T09:21:53;361.40;;;88.63;;
7440;SDS011;29616;51.950;8.572;2023-02-15T09:24:21;315.52;;;64.03;;
7440;SDS011;29616;51.950;8.572;2023-02-15T09:26:50;339.58;;;75.28;;
7440;SDS011;29616;51.950;8.572;2023-02-15T09:29:20;319.48;;;64.68;;
7440;SDS011;29616;51.950;8.572;2023-02-15T09:31:51;329.85;;;71.40;;
7440;SDS011;29616;51.950;8.572;2023-02-15T09:34:20;300.85;;;62.92;;
7440;SDS011;29616;51.950;8.572;2023-02-15T09:36:51;285.20;;;59.30;;
7440;SDS011;29616;51.950;8.572;2023-02-15T09:39:20;287.45;;;63.72;;
7440;SDS011;29616;51.950;8.572;2023-02-15T09:45:04;259.25;;;49.28;;
7440;SDS011;29616;51.950;8.572;2023-02-15T09:47:50;245.60;;;48.22;;
7440;SDS011;29616;51.950;8.572;2023-02-15T09:50:37;235.07;;;46.00;;
7440;SDS011;29616;51.950;8.572;2023-02-15T09:53:24;237.55;;;48.85;;
7440;SDS011;29616;51.950;8.572;2023-02-15T09:56:06;221.30;;;48.15;;
7440;SDS011;29616;51.950;8.572;2023-02-15T09:58:49;205.05;;;49.22;;
7440;SDS011;29616;51.950;8.572;2023-02-15T10:01:31;202.82;;;48.95;;
7440;SDS011;29616;51.950;8.572;2023-02-15T10:04:19;185.82;;;48.55;;
7440;SDS011;29616;51.950;8.572;2023-02-15T10:07:11;225.77;;;49.38;;
7440;SDS011;29616;51.950;8.572;2023-02-15T10:09:55;216.70;;;47.58;;
7440;SDS011;29616;51.950;8.572;2023-02-15T10:12:52;219.82;;;46.28;;
7440;SDS011;29616;51.950;8.572;2023-02-15T10:15:38;216.23;;;44.15;;
7440;SDS011;29616;51.950;8.572;2023-02-15T10:18:34;220.57;;;46.63;;
7440;SDS011;29616;51.950;8.572;2023-02-15T10:24:14;225.18;;;47.05;;
7440;SDS011;29616;51.950;8.572;2023-02-15T10:27:15;217.63;;;46.97;;
7440;SDS011;29616;51.950;8.572;2023-02-15T10:29:53;217.75;;;46.78;;
7440;SDS011;29616;51.950;8.572;2023-02-15T10:32:40;222.93;;;48.30;;
7440;SDS011;29616;51.950;8.572;2023-02-15T10:35:23;228.63;;;45.47;;
7440;SDS011;29616;51.950;8.572;2023-02-15T10:38:01;237.00;;;49.78;;
7440;SDS011;29616;51.950;8.572;2023-02-15T10:40:50;235.20;;;49.60;;
7440;SDS011;29616;51.950;8.572;2023-02-15T10:43:45;226.43;;;45.92;;
7440;SDS011;29616;51.950;8.572;2023-02-15T10:46:45;227.77;;;46.40;;
7440;SDS011;29616;51.950;8.572;2023-02-15T10:49:39;228.18;;;47.72;;
7440;SDS011;29616;51.950;8.572;2023-02-15T10:52:29;234.35;;;49.08;;
7440;SDS011;29616;51.950;8.572;2023-02-15T10:55:11;229.32;;;48.10;;
7440;SDS011;29616;51.950;8.572;2023-02-15T10:57:53;223.70;;;49.92;;
7440;SDS011;29616;51.950;8.572;2023-02-15T11:00:35;227.07;;;49.58;;
7440;SDS011;29616;51.950;8.572;2023-02-15T11:03:15;222.38;;;49.70;;
7440;SDS011;29616;51.950;8.572;2023-02-15T11:06:02;225.02;;;48.63;;
7440;SDS011;29616;51.950;8.572;2023-02-15T11:08:34;237.02;;;47.70;;
7440;SDS011;29616;51.950;8.572;2023-02-15T11:11:06;229.75;;;48.80;;
7440;SDS011;29616;51.950;8.572;2023-02-15T11:13:38;222.45;;;46.28;;
7440;SDS011;29616;51.950;8.572;2023-02-15T11:16:12;228.77;;;50.28;;
7440;SDS011;29616;51.950;8.572;2023-02-15T11:18:46;224.23;;;48.17;;
7440;SDS011;29616;51.950;8.572;2023-02-15T11:21:24;229.18;;;49.75;;
7440;SDS011;29616;51.950;8.572;2023-02-15T11:23:56;235.65;;;48.70;;
7440;SDS011;29616;51.950;8.572;2023-02-15T11:26:26;240.90;;;48.08;;
7440;SDS011;29616;51.950;8.572;2023-02-15T11:29:01;254.27;;;50.72;;
7440;SDS011;29616;51.950;8.572;2023-02-15T11:31:41;249.77;;;53.70;;
7440;SDS011;29616;51.950;8.572;2023-02-15T11:34:13;249.55;;;54.13;;
7440;SDS011;29616;51.950;8.572;2023-02-15T11:36:50;249.32;;;49.15;;
7440;SDS011;29616;51.950;8.572;2023-02-15T11:39:24;247.63;;;49.88;;
7440;SDS011;29616;51.950;8.572;2023-02-15T11:41:59;284.15;;;51.78;;
7440;SDS011;29616;51.950;8.572;2023-02-15T11:44:54;286.52;;;53.40;;
7440;SDS011;29616;51.950;8.572;2023-02-15T11:47:30;284.73;;;52.08;;
7440;SDS011;29616;51.950;8.572;2023-02-15T11:49:59;277.75;;;51.30;;
7440;SDS011;29616;51.950;8.572;2023-02-15T11:52:28;269.52;;;50.13;;
7440;SDS011;29616;51.950;8.572;2023-02-15T11:54:59;262.02;;;48.63;;
7440;SDS011;29616;51.950;8.572;2023-02-15T11:57:31;266.23;;;48.58;;
7440;SDS011;29616;51.950;8.572;2023-02-15T12:00:09;256.42;;;49.10;;
7440;SDS011;29616;51.950;8.572;2023-02-15T12:02:49;260.43;;;53.73;;
7440;SDS011;29616;51.950;8.572;2023-02-15T12:05:23;263.08;;;49.53;;
7440;SDS011;29616;51.950;8.572;2023-02-15T12:07:55;261.13;;;49.35;;
7440;SDS011;29616;51.950;8.572;2023-02-15T12:10:32;263.77;;;46.22;;
7440;SDS011;29616;51.950;8.572;2023-02-15T12:13:09;262.67;;;46.42;;
7440;SDS011;29616;51.950;8.572;2023-02-15T12:15:42;265.00;;;48.00;;
7440;SDS011;29616;51.950;8.572;2023-02-15T12:18:18;271.38;;;54.95;;
7440;SDS011;29616;51.950;8.572;2023-02-15T12:23:32;262.55;;;54.63;;
7440;SDS011;29616;51.950;8.572;2023-02-15T12:26:08;267.88;;;48.33;;
7440;SDS011;29616;51.950;8.572;2023-02-15T12:28:39;263.77;;;46.35;;
7440;SDS011;29616;51.950;8.572;2023-02-15T12:33:51;269.88;;;49.67;;
7440;SDS011;29616;51.950;8.572;2023-02-15T12:36:24;269.35;;;53.70;;
7440;SDS011;29616;51.950;8.572;2023-02-15T12:39:15;271.67;;;52.80;;
7440;SDS011;29616;51.950;8.572;2023-02-15T12:42:03;265.67;;;51.92;;
7440;SDS011;29616;51.950;8.572;2023-02-15T12:47:22;263.88;;;51.28;;
7440;SDS011;29616;51.950;8.572;2023-02-15T12:50:07;268.30;;;54.67;;
7440;SDS011;29616;51.950;8.572;2023-02-15T12:52:51;258.38;;;52.40;;
7440;SDS011;29616;51.950;8.572;2023-02-15T12:55:37;255.70;;;50.60;;
7440;SDS011;29616;51.950;8.572;2023-02-15T12:58:16;248.32;;;48.60;;
7440;SDS011;29616;51.950;8.572;2023-02-15T13:00:46;248.88;;;49.90;;
7440;SDS011;29616;51.950;8.572;2023-02-15T13:03:17;246.40;;;49.83;;
7440;SDS011;29616;51.950;8.572;2023-02-15T13:05:51;248.20;;;52.63;;
7440;SDS011;29616;51.950;8.572;2023-02-15T13:08:27;246.35;;;50.25;;
7440;SDS011;29616;51.950;8.572;2023-02-15T13:11:00;243.60;;;51.40;;
7440;SDS011;29616;51.950;8.572;2023-02-15T13:13:32;245.38;;;53.20;;
7440;SDS011;29616;51.950;8.572;2023-02-15T13:16:05;238.80;;;50.67;;
7440;SDS011;29616;51.950;8.572;2023-02-15T13:18:42;238.98;;;48.28;;
7440;SDS011;29616;51.950;8.572;2023-02-15T13:21:13;247.02;;;50.53;;
7440;SDS011;29616;51.950;8.572;2023-02-15T13:23:46;243.57;;;51.72;;
7440;SDS011;29616;51.950;8.572;2023-02-15T13:26:22;245.35;;;51.53;;
7440;SDS011;29616;51.950;8.572;2023-02-15T13:28:54;242.40;;;53.72;;
7440;SDS011;29616;51.950;8.572;2023-02-15T13:31:26;213.40;;;43.90;;
7440;SDS011;29616;51.950;8.572;2023-02-15T13:34:01;244.65;;;53.00;;
7440;SDS011;29616;51.950;8.572;2023-02-15T13:36:42;238.23;;;51.08;;
7440;SDS011;29616;51.950;8.572;2023-02-15T13:39:22;236.48;;;51.75;;
7440;SDS011;29616;51.950;8.572;2023-02-15T13:42:00;205.50;;;45.08;;
7440;SDS011;29616;51.950;8.572;2023-02-15T13:44:52;237.57;;;51.42;;
7440;SDS011;29616;51.950;8.572;2023-02-15T13:47:34;229.48;;;51.42;;
7440;SDS011;29616;51.950;8.572;2023-02-15T13:50:18;240.70;;;54.63;;
7440;SDS011;29616;51.950;8.572;2023-02-15T13:52:58;231.55;;;53.50;;
7440;SDS011;29616;51.950;8.572;2023-02-15T13:55:49;196.15;;;43.50;;
7440;SDS011;29616;51.950;8.572;2023-02-15T13:58:29;234.00;;;52.95;;
7440;SDS011;29616;51.950;8.572;2023-02-15T14:01:21;231.35;;;51.72;;
7440;SDS011;29616;51.950;8.572;2023-02-15T14:06:58;231.10;;;50.90;;
7440;SDS011;29616;51.950;8.572;2023-02-15T14:10:02;229.00;;;47.35;;
7440;SDS011;29616;51.950;8.572;2023-02-15T14:13:05;231.30;;;48.10;;
7440;SDS011;29616;51.950;8.572;2023-02-15T14:16:11;237.75;;;50.15;;
7440;SDS011;29616;51.950;8.572;2023-02-15T14:18:48;245.98;;;60.22;;
7440;SDS011;29616;51.950;8.572;2023-02-15T14:21:26;234.82;;;50.30;;
7440;SDS011;29616;51.950;8.572;2023-02-15T14:24:05;240.93;;;54.40;;
7440;SDS011;29616;51.950;8.572;2023-02-15T14:26:47;236.93;;;51.00;;
7440;SDS011;29616;51.950;8.572;2023-02-15T14:29:28;236.00;;;52.17;;
7440;SDS011;29616;51.950;8.572;2023-02-15T14:32:20;232.95;;;50.78;;
7440;SDS011;29616;51.950;8.572;2023-02-15T14:35:08;238.57;;;54.03;;
7440;SDS011;29616;51.950;8.572;2023-02-15T14:37:46;233.95;;;51.90;;
7440;SDS011;29616;51.950;8.572;2023-02-15T14:40:24;235.27;;;51.63;;
7440;SDS011;29616;51.950;8.572;2023-02-15T14:43:24;231.75;;;50.90;;
7440;SDS011;29616;51.950;8.572;2023-02-15T14:46:03;231.15;;;49.72;;
7440;SDS011;29616;51.950;8.572;2023-02-15T14:48:45;199.27;;;44.07;;
7440;SDS011;29616;51.950;8.572;2023-02-15T14:57:26;226.68;;;49.30;;
7440;SDS011;29616;51.950;8.572;2023-02-15T15:00:33;227.50;;;53.60;;
7440;SDS011;29616;51.950;8.572;2023-02-15T15:03:21;231.38;;;52.88;;
7440;SDS011;29616;51.950;8.572;2023-02-15T15:06:23;224.65;;;50.72;;
7440;SDS011;29616;51.950;8.572;2023-02-15T15:09:11;232.93;;;52.70;;
7440;SDS011;29616;51.950;8.572;2023-02-15T15:11:47;229.45;;;49.92;;
7440;SDS011;29616;51.950;8.572;2023-02-15T15:14:36;229.32;;;48.42;;
7440;SDS011;29616;51.950;8.572;2023-02-15T15:17:09;220.48;;;49.30;;
7440;SDS011;29616;51.950;8.572;2023-02-15T15:22:42;226.45;;;50.92;;
7440;SDS011;29616;51.950;8.572;2023-02-15T15:25:12;226.70;;;49.57;;
7440;SDS011;29616;51.950;8.572;2023-02-15T15:31:35;222.02;;;49.65;;
7440;SDS011;29616;51.950;8.572;2023-02-15T15:34:17;224.43;;;49.17;;
7440;SDS011;29616;51.950;8.572;2023-02-15T15:37:18;224.05;;;49.33;;
7440;SDS011;29616;51.950;8.572;2023-02-15T15:47:10;214.95;;;45.47;;
7440;SDS011;29616;51.950;8.572;2023-02-15T15:49:58;215.38;;;49.45;;
7440;SDS011;29616;51.950;8.572;2023-02-15T15:52:27;213.85;;;45.75;;
7440;SDS011;29616;51.950;8.572;2023-02-15T15:55:12;213.05;;;46.55;;
7440;SDS011;29616;51.950;8.572;2023-02-15T15:57:46;210.43;;;47.15;;